createdAt,value
2022-12-15T00:02:10.066Z,38.00
2022-12-15T00:05:15.410Z,37.00
2022-12-15T00:08:30.744Z,38.20
2022-12-15T00:11:36.548Z,36.10
2022-12-15T00:14:41.619Z,37.20
2022-12-15T00:17:46.696Z,36.50
2022-12-15T00:20:52.082Z,37.60
2022-12-15T00:23:56.940Z,35.70
2022-12-15T00:27:01.864Z,36.20
2022-12-15T00:30:07.129Z,35.00
2022-12-15T00:33:12.157Z,36.10
2022-12-15T00:36:18.251Z,34.70
2022-12-15T00:39:04.851Z,36.50
2022-12-15T00:41:51.465Z,34.80
2022-12-15T00:44:37.709Z,34.70
2022-12-15T00:47:24.710Z,34.80
2022-12-15T00:50:29.901Z,35.40
2022-12-15T00:53:34.978Z,34.00
2022-12-15T00:56:40.322Z,33.20
2022-12-15T00:59:45.392Z,34.10
2022-12-15T01:02:50.787Z,33.30
2022-12-15T01:05:56.239Z,33.20
2022-12-15T01:09:01.361Z,34.30
2022-12-15T01:12:07.612Z,33.60
2022-12-15T01:15:12.771Z,33.60
2022-12-15T01:18:18.024Z,32.60
2022-12-15T01:21:08.289Z,33.30
2022-12-15T01:23:54.768Z,33.90
2022-12-15T01:26:41.218Z,33.20
2022-12-15T01:29:27.535Z,32.90
2022-12-15T01:32:14.169Z,33.90
2022-12-15T01:35:07.889Z,32.70
2022-12-15T01:37:54.276Z,32.80
2022-12-15T01:40:50.219Z,34.00
2022-12-15T01:43:39.966Z,33.00
2022-12-15T01:46:26.633Z,33.50
2022-12-15T01:49:35.763Z,34.10
2022-12-15T01:52:22.107Z,33.50
2022-12-15T01:55:10.570Z,33.50
2022-12-15T01:58:03.525Z,35.60
2022-12-15T02:00:50.069Z,35.30
2022-12-15T02:03:38.440Z,35.00
2022-12-15T02:06:26.487Z,35.90
2022-12-15T02:09:13.033Z,35.20
2022-12-15T02:12:28.032Z,36.40
2022-12-15T02:15:29.793Z,35.40
2022-12-15T02:18:44.058Z,36.30
2022-12-15T02:21:39.780Z,35.90
2022-12-15T02:24:58.060Z,36.10
2022-12-15T02:27:44.317Z,35.60
2022-12-15T02:30:44.156Z,35.50
2022-12-15T02:33:34.100Z,35.30
2022-12-15T02:36:36.984Z,34.80
2022-12-15T02:39:24.129Z,34.50
2022-12-15T02:42:11.668Z,32.60
2022-12-15T02:45:38.971Z,33.60
2022-12-15T02:48:50.287Z,33.20
2022-12-15T02:52:15.628Z,32.80
2022-12-15T02:55:22.985Z,32.30
2022-12-15T02:58:40.460Z,33.30
2022-12-15T03:01:34.537Z,32.60
2022-12-15T03:04:21.929Z,34.20
2022-12-15T03:07:10.076Z,34.80
2022-12-15T03:09:58.882Z,33.80
2022-12-15T03:12:45.671Z,34.70
2022-12-15T03:15:35.477Z,34.90
2022-12-15T03:18:22.494Z,33.70
2022-12-15T03:21:09.328Z,34.50
2022-12-15T03:23:57.049Z,35.90
2022-12-15T03:26:44.574Z,35.60
2022-12-15T03:29:31.188Z,34.60
2022-12-15T03:32:17.523Z,36.00
2022-12-15T03:35:04.283Z,34.40
2022-12-15T03:37:50.613Z,35.10
2022-12-15T03:40:37.223Z,35.00
2022-12-15T03:43:23.641Z,33.60
2022-12-15T03:46:10.104Z,34.90
2022-12-15T03:48:56.421Z,35.20
2022-12-15T03:51:42.796Z,33.90
2022-12-15T03:54:29.187Z,33.70
2022-12-15T03:57:15.472Z,32.40
2022-12-15T04:00:01.930Z,32.70
2022-12-15T04:02:50.381Z,32.80
2022-12-15T04:05:37.564Z,32.30
2022-12-15T04:08:26.831Z,32.20
2022-12-15T04:11:13.379Z,32.30
2022-12-15T04:13:59.827Z,33.20
2022-12-15T04:16:46.000Z,32.40
2022-12-15T04:19:51.118Z,32.30
2022-12-15T04:25:00.759Z,25.80
2022-12-15T04:28:06.509Z,32.20
2022-12-15T04:31:15.680Z,31.50
2022-12-15T04:34:25.411Z,31.50
2022-12-15T04:37:32.624Z,32.50
2022-12-15T04:40:38.288Z,32.50
2022-12-15T04:43:43.800Z,31.60
2022-12-15T04:46:48.663Z,33.00
2022-12-15T04:49:54.423Z,33.20
2022-12-15T04:52:59.551Z,32.90
2022-12-15T04:56:04.425Z,32.90
2022-12-15T04:59:09.596Z,32.70
2022-12-15T05:02:14.783Z,33.40
2022-12-15T05:05:20.320Z,32.30
2022-12-15T05:08:25.533Z,33.20
2022-12-15T05:11:30.744Z,33.60
2022-12-15T05:14:36.167Z,31.80
2022-12-15T05:17:42.094Z,33.50
2022-12-15T05:20:50.178Z,33.20
2022-12-15T05:23:55.774Z,33.30
2022-12-15T05:27:02.198Z,33.40
2022-12-15T05:30:08.581Z,35.30
2022-12-15T05:32:55.031Z,35.40
2022-12-15T05:35:41.670Z,38.90
2022-12-15T05:38:28.319Z,38.50
2022-12-15T05:41:14.605Z,39.70
2022-12-15T05:44:01.607Z,40.00
2022-12-15T05:46:47.963Z,39.40
2022-12-15T05:49:35.660Z,37.90
2022-12-15T05:52:22.126Z,37.10
2022-12-15T05:55:09.144Z,38.80
2022-12-15T05:57:56.588Z,40.40
2022-12-15T06:12:58.663Z,33.00
2022-12-15T06:16:10.587Z,29.10
2022-12-15T06:19:01.071Z,35.80
2022-12-15T06:21:48.049Z,37.50
2022-12-15T06:24:34.340Z,38.10
2022-12-15T06:27:25.085Z,37.90
2022-12-15T06:30:11.841Z,38.00
2022-12-15T06:32:58.244Z,36.00
2022-12-15T06:35:45.051Z,37.90
2022-12-15T06:38:32.227Z,37.90
2022-12-15T06:41:21.291Z,38.70
2022-12-15T06:44:07.862Z,37.50
2022-12-15T06:46:55.992Z,38.00
2022-12-15T06:49:42.936Z,39.40
2022-12-15T06:52:29.283Z,40.20
2022-12-15T06:55:15.768Z,39.40
2022-12-15T06:58:02.237Z,39.60
2022-12-15T07:00:48.706Z,39.80
2022-12-15T07:03:36.593Z,39.60
2022-12-15T07:06:23.713Z,40.50
2022-12-15T07:09:13.698Z,40.00
2022-12-15T07:11:59.869Z,40.60
2022-12-15T07:14:51.594Z,41.60
2022-12-15T07:17:40.349Z,41.40
2022-12-15T07:20:28.927Z,42.80
2022-12-15T07:23:18.260Z,42.70
2022-12-15T07:26:11.222Z,42.20
2022-12-15T07:29:00.731Z,43.80
2022-12-15T07:31:47.191Z,43.50
2022-12-15T07:34:35.902Z,44.60
2022-12-15T07:37:22.383Z,45.40
2022-12-15T07:40:09.183Z,45.60
2022-12-15T07:42:55.468Z,45.10
2022-12-15T07:45:46.790Z,44.40
2022-12-15T07:48:36.332Z,44.90
2022-12-15T07:51:23.350Z,45.50
2022-12-15T07:54:14.047Z,43.10
2022-12-15T07:57:00.526Z,41.30
2022-12-15T07:59:47.388Z,42.30
2022-12-15T08:02:34.197Z,41.90
2022-12-15T08:05:21.192Z,42.10
2022-12-15T08:08:13.715Z,40.80
2022-12-15T08:11:06.343Z,39.90
2022-12-15T08:14:02.637Z,40.40
2022-12-15T08:16:50.526Z,38.30
2022-12-15T08:19:37.483Z,37.60
2022-12-15T08:22:24.709Z,36.00
2022-12-15T08:25:11.031Z,37.20
2022-12-15T08:27:57.353Z,36.30
2022-12-15T08:30:44.218Z,32.60
2022-12-15T08:33:31.576Z,31.10
2022-12-15T08:36:20.283Z,31.10
2022-12-15T08:39:07.039Z,30.60
2022-12-15T08:41:53.783Z,29.10
2022-12-15T08:44:42.378Z,28.70
2022-12-15T08:53:42.130Z,23.80
2022-12-15T08:57:38.930Z,25.20
2022-12-15T09:01:33.427Z,24.50
2022-12-15T09:05:29.347Z,23.20
2022-12-15T09:09:27.269Z,26.90
2022-12-15T09:13:22.871Z,25.70
2022-12-15T09:17:59.514Z,26.10
2022-12-15T09:21:26.717Z,23.70
2022-12-15T09:25:22.274Z,21.60
2022-12-15T09:29:19.151Z,22.70
2022-12-15T09:33:16.288Z,24.30
2022-12-15T09:37:30.380Z,26.00
2022-12-15T09:51:18.502Z,26.30
2022-12-15T09:54:15.353Z,23.50
2022-12-15T09:58:50.537Z,23.40
2022-12-15T10:02:55.685Z,22.90
2022-12-15T10:07:00.684Z,25.90
2022-12-15T10:10:58.687Z,26.10
2022-12-15T10:15:03.504Z,27.40
2022-12-15T10:19:35.091Z,30.20
2022-12-15T10:23:30.394Z,31.20
2022-12-15T10:28:18.219Z,30.60
2022-12-15T10:32:16.855Z,30.80
2022-12-15T10:36:12.485Z,31.70
2022-12-15T10:40:06.494Z,33.20
2022-12-15T10:44:02.606Z,32.30
2022-12-15T10:47:59.160Z,27.50
2022-12-15T10:51:57.717Z,27.40
2022-12-15T10:56:01.436Z,27.80
2022-12-15T11:00:02.145Z,28.10
2022-12-15T11:03:57.971Z,30.40
2022-12-15T11:08:10.691Z,29.60
2022-12-15T11:18:31.672Z,30.80
2022-12-15T11:22:18.069Z,30.60
2022-12-15T11:25:23.567Z,31.00
2022-12-15T11:29:34.574Z,30.90
2022-12-15T11:33:32.769Z,31.70
2022-12-15T11:37:39.733Z,33.30
2022-12-15T11:42:04.610Z,31.20
2022-12-15T11:46:20.799Z,32.90
2022-12-15T11:50:25.774Z,31.20
2022-12-15T11:54:22.420Z,31.10
2022-12-15T11:58:24.930Z,30.50
2022-12-15T12:02:49.976Z,30.90
2022-12-15T12:07:03.489Z,31.30
2022-12-15T12:11:12.251Z,34.30
2022-12-15T12:15:14.158Z,35.70
2022-12-15T12:19:23.894Z,38.40
2022-12-15T12:23:27.520Z,38.60
2022-12-15T12:28:03.607Z,39.40
2022-12-15T12:31:04.257Z,35.30
2022-12-15T12:35:37.597Z,35.80
2022-12-15T12:39:53.412Z,39.30
2022-12-15T12:43:26.889Z,36.60
2022-12-15T12:47:38.044Z,36.20
2022-12-15T12:51:34.162Z,38.10
2022-12-15T12:55:41.326Z,39.10
2022-12-15T12:59:49.718Z,41.80
2022-12-15T13:03:43.727Z,41.90
2022-12-15T13:08:07.540Z,42.10
2022-12-15T13:11:49.366Z,42.20
2022-12-15T13:17:01.367Z,37.50
2022-12-15T13:20:19.941Z,35.00
2022-12-15T13:24:35.306Z,39.10
2022-12-15T13:28:52.117Z,39.00
2022-12-15T13:32:35.782Z,32.40
2022-12-15T13:36:42.083Z,35.20
2022-12-15T13:40:38.097Z,33.60
2022-12-15T13:44:48.790Z,35.10
2022-12-15T13:49:00.644Z,35.80
2022-12-15T13:53:30.859Z,36.40
2022-12-15T13:57:08.835Z,43.90
2022-12-15T14:00:05.256Z,43.70
2022-12-15T14:02:56.899Z,46.20
2022-12-15T14:07:06.509Z,35.20
2022-12-15T14:11:16.453Z,33.00
2022-12-15T14:15:27.809Z,36.00
2022-12-15T14:19:24.301Z,34.20
2022-12-15T14:23:27.221Z,36.10
2022-12-15T14:27:32.404Z,36.30
2022-12-15T14:31:40.851Z,37.20
2022-12-15T14:35:27.338Z,37.10
2022-12-15T14:39:35.579Z,35.10
2022-12-15T14:43:43.012Z,36.90
2022-12-15T14:57:48.739Z,35.10
2022-12-15T15:01:04.172Z,43.60
2022-12-15T15:07:19.038Z,44.20
2022-12-15T15:10:36.023Z,44.80
2022-12-15T15:13:39.513Z,43.90
2022-12-15T15:16:28.386Z,44.40
2022-12-15T15:19:22.792Z,43.10
2022-12-15T15:22:27.989Z,42.10
2022-12-15T15:25:39.282Z,43.30
2022-12-15T15:28:37.379Z,43.50
2022-12-15T15:31:24.667Z,45.40
2022-12-15T15:34:11.673Z,45.80
2022-12-15T15:36:58.564Z,43.30
2022-12-15T15:39:47.783Z,42.00
2022-12-15T15:42:35.373Z,43.80
2022-12-15T15:45:33.716Z,42.40
2022-12-15T15:48:58.913Z,43.50
2022-12-15T15:51:45.576Z,42.50
2022-12-15T15:54:45.978Z,42.70
2022-12-15T15:57:32.591Z,42.10
2022-12-15T16:00:22.702Z,42.50
2022-12-15T16:03:10.907Z,41.90
2022-12-15T16:06:00.285Z,41.50
2022-12-15T16:08:51.209Z,41.20
2022-12-15T16:12:06.659Z,40.70
2022-12-15T16:14:56.865Z,40.80
2022-12-15T16:17:43.472Z,37.90
2022-12-15T16:20:30.776Z,38.40
2022-12-15T16:25:36.626Z,30.60
2022-12-15T16:29:40.910Z,28.80
2022-12-15T16:33:34.528Z,30.90
2022-12-15T16:36:33.477Z,38.30
2022-12-15T16:39:34.692Z,40.40
2022-12-15T16:42:21.077Z,40.00
2022-12-15T16:45:18.205Z,40.80
2022-12-15T16:48:07.220Z,40.70
2022-12-15T16:50:59.261Z,41.70
2022-12-15T16:53:48.404Z,42.30
2022-12-15T16:56:37.302Z,44.90
2022-12-15T16:59:33.641Z,42.70
2022-12-15T17:02:30.044Z,42.00
2022-12-15T17:05:19.292Z,42.80
2022-12-15T17:08:32.817Z,42.20
2022-12-15T17:18:35.295Z,33.70
2022-12-15T17:21:29.904Z,38.80
2022-12-15T17:25:12.473Z,38.10
2022-12-15T17:28:01.798Z,41.50
2022-12-15T17:30:50.775Z,39.90
2022-12-15T17:33:37.429Z,41.60
2022-12-15T17:36:28.388Z,41.50
2022-12-15T17:39:16.615Z,41.20
2022-12-15T17:42:06.355Z,41.50
2022-12-15T17:44:53.020Z,36.30
2022-12-15T17:47:39.769Z,40.70
2022-12-15T17:50:26.343Z,40.30
2022-12-15T17:53:18.680Z,40.20
2022-12-15T17:56:05.197Z,39.90
2022-12-15T17:58:51.647Z,42.80
2022-12-15T18:01:38.081Z,40.50
2022-12-15T18:16:41.403Z,34.40
2022-12-15T18:19:35.299Z,31.60
2022-12-15T18:22:25.722Z,39.90
2022-12-15T18:25:25.988Z,42.80
2022-12-15T18:28:21.923Z,42.00
2022-12-15T18:31:28.976Z,40.40
2022-12-15T18:34:18.229Z,40.10
2022-12-15T18:37:15.095Z,39.80
2022-12-15T18:40:04.868Z,43.50
2022-12-15T18:42:55.439Z,41.90
2022-12-15T18:45:43.238Z,40.10
2022-12-15T18:48:33.129Z,41.10
2022-12-15T18:51:22.252Z,42.30
2022-12-15T18:54:21.892Z,43.60
2022-12-15T18:57:33.113Z,40.30
2022-12-15T19:00:27.657Z,37.90
2022-12-15T19:03:14.658Z,38.00
2022-12-15T19:06:25.961Z,38.70
2022-12-15T19:09:18.772Z,39.20
2022-12-15T19:12:18.836Z,41.40
2022-12-15T19:15:10.056Z,44.10
2022-12-15T19:18:16.607Z,40.60
2022-12-15T19:21:30.615Z,41.70
2022-12-15T19:24:59.851Z,40.90
2022-12-15T19:27:46.099Z,40.30
2022-12-15T19:30:38.452Z,40.60
2022-12-15T19:33:28.585Z,40.00
2022-12-15T19:36:18.789Z,40.60
2022-12-15T19:39:16.882Z,40.50
2022-12-15T19:42:10.108Z,42.60
2022-12-15T19:45:01.487Z,42.40
2022-12-15T19:47:48.171Z,41.00
2022-12-15T19:50:36.973Z,41.00
2022-12-15T19:53:28.299Z,41.50
2022-12-15T19:56:19.447Z,40.10
2022-12-15T19:59:18.205Z,42.50
2022-12-15T20:02:06.394Z,41.60
2022-12-15T20:04:52.840Z,40.20
2022-12-15T20:07:40.242Z,40.20
2022-12-15T20:10:31.971Z,42.00
2022-12-15T20:13:20.741Z,42.60
2022-12-15T20:16:07.905Z,42.20
2022-12-15T20:18:56.159Z,43.70
2022-12-15T20:21:42.806Z,43.40
2022-12-15T20:24:33.444Z,44.10
2022-12-15T20:27:19.891Z,43.30
2022-12-15T20:30:10.286Z,44.10
2022-12-15T20:32:56.683Z,43.40
2022-12-15T20:35:46.035Z,43.90
2022-12-15T20:38:33.947Z,37.40
2022-12-15T20:41:22.127Z,35.10
2022-12-15T20:44:12.719Z,37.00
2022-12-15T20:46:59.120Z,39.60
2022-12-15T20:49:45.763Z,39.30
2022-12-15T20:52:33.288Z,38.70
2022-12-15T20:55:20.595Z,40.50
2022-12-15T20:58:07.058Z,35.10
2022-12-15T21:00:55.218Z,36.90
2022-12-15T21:03:43.585Z,38.80
2022-12-15T21:06:31.207Z,39.80
2022-12-15T21:09:19.852Z,35.80
2022-12-15T21:12:31.176Z,37.10
2022-12-15T21:15:23.162Z,38.80
2022-12-15T21:18:57.120Z,39.00
2022-12-15T21:21:21.052Z,40.70
2022-12-15T21:24:16.327Z,38.60
2022-12-15T21:27:04.216Z,40.40
2022-12-15T21:29:52.835Z,41.30
2022-12-15T21:32:41.346Z,39.60
2022-12-15T21:35:31.748Z,40.40
2022-12-15T21:38:36.217Z,41.50
2022-12-15T21:41:23.664Z,39.90
2022-12-15T21:44:14.902Z,39.70
2022-12-15T21:47:01.693Z,39.80
2022-12-15T21:49:48.139Z,40.20
2022-12-15T21:52:35.062Z,40.80
2022-12-15T21:55:24.519Z,41.80
2022-12-15T21:58:20.571Z,41.40
2022-12-15T22:01:22.255Z,43.40
2022-12-15T22:04:21.427Z,44.20
2022-12-15T22:07:15.522Z,44.30
2022-12-15T22:10:02.094Z,43.70
2022-12-15T22:12:59.220Z,45.90
2022-12-15T22:15:48.487Z,45.80
2022-12-15T22:18:35.344Z,45.90
2022-12-15T22:21:23.432Z,46.20
2022-12-15T22:24:10.937Z,45.40
2022-12-15T22:26:58.408Z,47.60
2022-12-15T22:29:45.159Z,46.60
2022-12-15T22:32:32.602Z,42.80
2022-12-15T22:35:21.990Z,43.10
2022-12-15T22:38:08.523Z,45.10
2022-12-15T22:40:58.605Z,43.30
2022-12-15T22:43:51.383Z,44.30
2022-12-15T22:46:40.604Z,40.80
2022-12-15T22:49:39.385Z,41.60
2022-12-15T22:52:25.496Z,40.80
2022-12-15T22:55:17.133Z,42.30
2022-12-15T22:58:08.305Z,44.00
2022-12-15T23:00:56.432Z,43.30
2022-12-15T23:03:43.261Z,42.80
2022-12-15T23:06:30.300Z,42.60
2022-12-15T23:16:46.734Z,35.80
2022-12-15T23:19:33.656Z,46.90
2022-12-15T23:22:22.734Z,47.40
2022-12-15T23:25:09.403Z,48.00
2022-12-15T23:27:56.236Z,46.80
2022-12-15T23:30:42.716Z,47.20
2022-12-15T23:33:30.042Z,46.70
2022-12-15T23:36:16.972Z,46.10
2022-12-15T23:39:04.213Z,46.50
2022-12-15T23:41:50.387Z,46.10
2022-12-15T23:44:37.629Z,47.80
2022-12-15T23:47:24.502Z,45.50
2022-12-15T23:50:11.499Z,45.90
2022-12-15T23:52:57.912Z,46.00
2022-12-15T23:55:44.424Z,46.40
2022-12-15T23:58:30.852Z,46.70
